Terminal Aerodrome Forecast
Issued by NWS Amarillo, TX

Home | Current Version | Previous Version | Text Only | Print | Product List | Glossary On
Versions: 1 2 3 4 5 6 7 8 9 10 11 12 13
000
FTUS44 KAMA 232320
TAFGUY
TAF
KGUY 232320Z 2400/2424 11008KT P6SM SCT070 BKN120
     FM240500 VRB03KT P6SM SCT120
     FM241600 15010KT P6SM SCT080 SCT120=

USA.gov is the U.S. government's official web portal to all federal, state and local government web resources and services.